createdAt,value
2022-12-22T00:02:01.252Z,74.22
2022-12-22T00:04:47.959Z,73.88
2022-12-22T00:07:34.035Z,85.97
2022-12-22T00:10:20.139Z,75.63
2022-12-22T00:13:06.245Z,87.18
2022-12-22T00:15:54.353Z,82.93
2022-12-22T00:18:40.421Z,80.43
2022-12-22T00:21:30.209Z,78.57
2022-12-22T00:24:17.131Z,84.45
2022-12-22T00:27:04.235Z,69.45
2022-12-22T00:29:59.370Z,71.03
2022-12-22T00:32:51.225Z,79.15
2022-12-22T00:35:41.040Z,77.10
2022-12-22T00:38:39.682Z,85.32
2022-12-22T00:41:25.821Z,85.80
2022-12-22T00:44:11.789Z,78.47
2022-12-22T00:47:00.373Z,76.00
2022-12-22T00:49:48.365Z,79.43
2022-12-22T00:52:34.825Z,81.35
2022-12-22T00:55:21.340Z,72.57
2022-12-22T00:58:07.309Z,69.82
2022-12-22T01:00:52.975Z,73.13
2022-12-22T01:03:38.550Z,65.70
2022-12-22T01:06:29.086Z,64.53
2022-12-22T01:09:15.017Z,63.10
2022-12-22T01:12:00.780Z,64.55
2022-12-22T01:14:46.517Z,68.40
2022-12-22T01:17:32.422Z,59.20
2022-12-22T01:20:18.290Z,61.78
2022-12-22T01:23:04.855Z,56.92
2022-12-22T01:25:50.691Z,62.45
2022-12-22T01:28:36.630Z,58.85
2022-12-22T01:31:50.114Z,57.45
2022-12-22T01:34:36.255Z,55.97
2022-12-22T01:37:21.947Z,54.80
2022-12-22T01:40:07.563Z,58.30
2022-12-22T01:42:54.220Z,55.25
2022-12-22T01:45:43.853Z,52.70
2022-12-22T01:48:34.825Z,58.33
2022-12-22T01:51:24.729Z,55.95
2022-12-22T01:54:13.100Z,51.85
2022-12-22T01:56:59.471Z,46.78
2022-12-22T01:59:45.290Z,51.63
2022-12-22T02:02:31.417Z,55.08
2022-12-22T02:05:20.077Z,46.63
2022-12-22T02:08:14.521Z,44.33
2022-12-22T02:11:26.311Z,44.50
2022-12-22T02:14:36.881Z,55.88
2022-12-22T02:17:43.076Z,64.60
2022-12-22T02:20:48.630Z,52.22
2022-12-22T02:23:40.345Z,55.28
2022-12-22T02:26:28.981Z,69.75
2022-12-22T02:29:15.617Z,65.35
2022-12-22T02:32:01.544Z,64.60
2022-12-22T02:34:47.283Z,48.42
2022-12-22T02:37:56.658Z,51.83
2022-12-22T02:41:02.989Z,49.92
2022-12-22T02:44:26.170Z,54.58
2022-12-22T02:47:51.141Z,55.70
2022-12-22T02:50:48.640Z,50.08
2022-12-22T02:53:37.535Z,52.25
2022-12-22T02:56:28.521Z,59.05
2022-12-22T02:59:14.472Z,50.05
2022-12-22T03:02:03.572Z,54.03
2022-12-22T03:04:49.931Z,50.00
2022-12-22T03:07:35.583Z,54.38
2022-12-22T03:10:21.359Z,56.08
2022-12-22T03:13:07.210Z,55.22
2022-12-22T03:15:53.099Z,56.40
2022-12-22T03:18:38.720Z,56.72
2022-12-22T03:21:24.665Z,53.47
2022-12-22T03:24:10.545Z,58.85
2022-12-22T03:26:39.302Z,56.28
2022-12-22T03:29:06.521Z,73.15
2022-12-22T03:31:33.754Z,67.40
2022-12-22T03:34:00.930Z,58.22
2022-12-22T03:36:28.066Z,63.28
2022-12-22T03:38:55.168Z,60.08
2022-12-22T03:41:40.664Z,55.45
2022-12-22T03:44:26.166Z,55.67
2022-12-22T03:46:53.431Z,58.35
2022-12-22T03:49:22.485Z,53.72
2022-12-22T03:51:51.304Z,47.63
2022-12-22T03:54:24.218Z,51.78
2022-12-22T03:56:52.311Z,59.85
2022-12-22T03:59:19.747Z,55.45
2022-12-22T04:01:49.967Z,50.20
2022-12-22T04:04:19.607Z,55.90
2022-12-22T04:06:47.106Z,52.63
2022-12-22T04:09:14.324Z,57.50
2022-12-22T04:12:00.292Z,52.22
2022-12-22T04:14:33.415Z,51.33
2022-12-22T04:17:04.174Z,61.15
2022-12-22T04:19:32.022Z,48.05
2022-12-22T04:21:59.399Z,53.40
2022-12-22T04:24:26.672Z,50.03
2022-12-22T04:26:53.893Z,51.15
2022-12-22T04:29:20.964Z,40.55
2022-12-22T04:31:48.164Z,49.00
2022-12-22T04:34:15.291Z,37.88
2022-12-22T04:36:42.632Z,39.00
2022-12-22T04:39:09.697Z,38.88
2022-12-22T04:41:36.755Z,35.70
2022-12-22T04:44:03.993Z,33.65
2022-12-22T04:46:31.181Z,33.03
2022-12-22T04:49:00.410Z,25.52
2022-12-22T04:51:28.536Z,26.98
2022-12-22T04:53:55.800Z,25.25
2022-12-22T04:56:22.874Z,23.52
2022-12-22T04:58:51.092Z,25.98
2022-12-22T05:01:19.259Z,22.08
2022-12-22T05:03:47.268Z,21.08
2022-12-22T05:06:14.682Z,19.77
2022-12-22T05:08:41.995Z,16.85
2022-12-22T05:11:09.318Z,16.25
2022-12-22T05:13:36.402Z,14.40
2022-12-22T05:16:09.212Z,14.95
2022-12-22T05:18:37.806Z,13.32
2022-12-22T05:21:11.984Z,11.15
2022-12-22T05:23:39.401Z,11.38
2022-12-22T05:26:07.375Z,10.73
2022-12-22T05:28:34.712Z,10.93
2022-12-22T05:31:10.481Z,12.15
2022-12-22T05:33:37.637Z,9.90
2022-12-22T05:36:04.941Z,11.25
2022-12-22T05:38:32.232Z,12.10
2022-12-22T05:41:04.099Z,12.05
2022-12-22T05:43:37.993Z,10.93
2022-12-22T05:46:12.430Z,13.55
2022-12-22T05:48:45.365Z,9.38
2022-12-22T05:51:13.188Z,11.40
2022-12-22T05:53:45.527Z,12.48
2022-12-22T05:56:16.342Z,9.27
2022-12-22T05:59:00.977Z,10.07
2022-12-22T06:01:32.132Z,7.82
2022-12-22T06:04:02.973Z,11.20
2022-12-22T06:06:33.905Z,11.60
2022-12-22T06:09:03.821Z,9.75
2022-12-22T06:11:36.706Z,10.55
2022-12-22T06:14:07.299Z,11.48
2022-12-22T06:16:37.630Z,11.48
2022-12-22T06:19:05.487Z,9.88
2022-12-22T06:21:33.366Z,7.75
2022-12-22T06:24:03.626Z,13.25
2022-12-22T06:26:31.402Z,15.05
2022-12-22T06:28:59.109Z,13.95
2022-12-22T06:31:29.840Z,13.48
2022-12-22T06:34:04.501Z,15.57
2022-12-22T06:36:36.288Z,14.90
2022-12-22T06:39:09.310Z,12.30
2022-12-22T06:41:56.116Z,10.80
2022-12-22T06:44:26.610Z,14.95
2022-12-22T06:46:54.858Z,17.93
2022-12-22T06:49:27.915Z,20.20
2022-12-22T06:51:58.291Z,21.20
2022-12-22T06:54:31.253Z,26.10
2022-12-22T06:57:04.473Z,26.45
2022-12-22T06:59:36.728Z,25.67
2022-12-22T07:02:07.202Z,23.33
2022-12-22T07:04:40.094Z,21.48
2022-12-22T07:07:22.577Z,22.50
2022-12-22T07:09:59.800Z,19.60
2022-12-22T07:12:37.999Z,20.83
2022-12-22T07:15:10.600Z,32.45
2022-12-22T07:17:47.325Z,46.95
2022-12-22T07:20:24.021Z,47.00
2022-12-22T07:22:51.782Z,53.75
2022-12-22T07:25:35.766Z,52.30
2022-12-22T07:28:06.070Z,48.15
2022-12-22T07:30:36.775Z,61.22
2022-12-22T07:33:09.732Z,53.22
2022-12-22T07:35:38.430Z,38.78
2022-12-22T07:38:08.590Z,33.90
2022-12-22T07:40:41.576Z,30.15
2022-12-22T07:43:19.630Z,26.20
2022-12-22T07:45:51.860Z,30.27
2022-12-22T07:48:45.143Z,24.00
2022-12-22T07:51:12.872Z,30.75
2022-12-22T07:53:42.488Z,26.08
2022-12-22T07:56:13.426Z,28.73
2022-12-22T07:58:41.388Z,23.10
2022-12-22T08:01:15.380Z,22.13
2022-12-22T08:03:43.523Z,24.95
2022-12-22T08:06:14.507Z,24.00
2022-12-22T08:08:42.443Z,24.10
2022-12-22T08:11:17.813Z,23.27
2022-12-22T08:13:47.109Z,18.42
2022-12-22T08:16:15.836Z,16.60
2022-12-22T08:18:46.310Z,15.60
2022-12-22T08:21:14.639Z,13.63
2022-12-22T08:23:43.280Z,16.05
2022-12-22T08:26:16.274Z,16.35
2022-12-22T08:28:59.539Z,13.13
2022-12-22T08:31:32.101Z,12.27
2022-12-22T08:34:10.968Z,9.90
2022-12-22T08:36:42.785Z,10.98
2022-12-22T08:39:19.275Z,10.50
2022-12-22T08:41:53.817Z,10.15
2022-12-22T08:44:27.346Z,9.98
2022-12-22T08:46:57.643Z,9.95
2022-12-22T08:49:29.655Z,14.48
2022-12-22T08:51:57.750Z,11.00
2022-12-22T08:54:25.679Z,12.32
2022-12-22T08:56:53.737Z,11.68
2022-12-22T08:59:36.206Z,10.27
2022-12-22T09:02:06.850Z,13.80
2022-12-22T09:04:35.830Z,12.30
2022-12-22T09:07:09.130Z,10.88
2022-12-22T09:09:37.561Z,9.60
2022-12-22T09:12:28.371Z,11.50
2022-12-22T09:15:06.525Z,9.93
2022-12-22T09:17:38.001Z,12.65
2022-12-22T09:20:08.433Z,9.95
2022-12-22T09:22:36.321Z,11.00
2022-12-22T09:25:07.590Z,13.32
2022-12-22T09:27:35.621Z,14.48
2022-12-22T09:30:03.987Z,19.35
2022-12-22T09:32:31.988Z,15.88
2022-12-22T09:35:02.698Z,16.45
2022-12-22T09:37:30.703Z,15.40
2022-12-22T09:40:01.243Z,15.07
2022-12-22T09:42:32.980Z,17.17
2022-12-22T09:45:03.999Z,15.30
2022-12-22T09:47:40.496Z,17.92
2022-12-22T09:50:17.631Z,16.55
2022-12-22T09:52:55.283Z,19.13
2022-12-22T09:55:26.000Z,27.73
2022-12-22T09:57:57.374Z,23.27
2022-12-22T10:00:44.531Z,21.58
2022-12-22T10:03:45.992Z,29.95
2022-12-22T10:06:33.864Z,27.38
2022-12-22T10:09:48.126Z,30.27
2022-12-22T10:12:17.493Z,23.90
2022-12-22T10:14:48.272Z,29.90
2022-12-22T10:17:23.110Z,28.40
2022-12-22T10:20:25.698Z,30.10
2022-12-22T10:23:01.333Z,29.45
2022-12-22T10:28:48.529Z,29.98
2022-12-22T10:31:18.814Z,26.40
2022-12-22T10:33:50.380Z,32.72
2022-12-22T10:36:33.065Z,29.65
2022-12-22T10:39:06.665Z,29.20
2022-12-22T10:41:47.710Z,29.30
2022-12-22T10:44:23.340Z,29.13
2022-12-22T10:46:53.818Z,29.95
2022-12-22T10:52:30.620Z,27.50
2022-12-22T10:55:28.236Z,26.65
2022-12-22T10:58:13.081Z,26.60
2022-12-22T11:00:41.967Z,23.63
2022-12-22T11:03:19.156Z,23.83
2022-12-22T11:05:50.386Z,23.00
2022-12-22T11:08:23.521Z,25.10
2022-12-22T11:11:01.498Z,23.08
2022-12-22T11:13:56.163Z,24.30
2022-12-22T11:16:56.392Z,23.35
2022-12-22T11:19:36.123Z,24.52
2022-12-22T11:22:13.635Z,22.77
2022-12-22T11:25:05.884Z,23.70
2022-12-22T11:28:11.778Z,20.10
2022-12-22T11:31:13.064Z,23.75
2022-12-22T11:33:40.895Z,25.65
2022-12-22T11:36:30.068Z,25.35
2022-12-22T11:39:24.322Z,28.63
2022-12-22T11:42:07.219Z,28.75
2022-12-22T11:44:58.829Z,26.48
2022-12-22T11:47:35.215Z,32.00
2022-12-22T11:51:00.180Z,35.50
2022-12-22T11:53:43.116Z,42.38
2022-12-22T11:56:29.968Z,39.33
2022-12-22T11:59:19.099Z,37.30
2022-12-22T12:02:20.637Z,40.75
2022-12-22T12:05:10.150Z,38.50
2022-12-22T12:08:00.636Z,38.20
2022-12-22T12:10:47.954Z,36.83
2022-12-22T12:13:36.587Z,37.40
2022-12-22T12:16:09.605Z,41.53
2022-12-22T12:19:14.706Z,37.88
2022-12-22T12:21:57.698Z,38.15
2022-12-22T12:24:46.016Z,34.40
2022-12-22T12:27:29.439Z,35.95
2022-12-22T12:33:20.460Z,45.58
2022-12-22T12:36:14.248Z,43.92
2022-12-22T12:39:15.365Z,47.63
2022-12-22T12:42:03.315Z,53.53
2022-12-22T12:44:40.991Z,46.55
2022-12-22T12:47:27.318Z,50.00
2022-12-22T12:50:35.539Z,48.45
2022-12-22T12:53:11.873Z,45.42
2022-12-22T12:55:40.027Z,42.33
2022-12-22T12:58:13.965Z,52.42
2022-12-22T13:00:49.581Z,49.40
2022-12-22T13:04:00.961Z,44.47
2022-12-22T13:06:49.889Z,48.45
2022-12-22T13:12:51.973Z,64.22
2022-12-22T13:15:35.025Z,53.95
2022-12-22T13:18:26.400Z,49.95
2022-12-22T13:21:34.475Z,55.30
2022-12-22T13:24:24.041Z,56.47
2022-12-22T13:27:01.168Z,43.35
2022-12-22T13:29:55.914Z,46.78
2022-12-22T13:32:33.899Z,46.17
2022-12-22T13:35:33.894Z,43.60
2022-12-22T13:40:44.998Z,42.60
2022-12-22T13:43:21.247Z,42.15
2022-12-22T13:45:58.337Z,42.95
2022-12-22T13:48:44.554Z,43.03
2022-12-22T13:51:23.250Z,47.28
2022-12-22T13:54:13.027Z,42.53
2022-12-22T13:56:53.221Z,45.80
2022-12-22T13:59:29.739Z,43.40
2022-12-22T14:02:05.419Z,41.72
2022-12-22T14:04:40.119Z,40.60
2022-12-22T14:07:22.940Z,39.33
2022-12-22T14:09:59.759Z,39.00
2022-12-22T14:12:31.817Z,39.85
2022-12-22T14:15:03.412Z,42.85
2022-12-22T14:20:28.129Z,46.00
2022-12-22T14:23:07.955Z,42.88
2022-12-22T14:25:45.192Z,38.10
2022-12-22T14:28:36.954Z,39.45
2022-12-22T14:31:08.820Z,35.17
2022-12-22T14:33:37.125Z,43.90
2022-12-22T14:36:40.829Z,48.35
2022-12-22T14:39:11.348Z,50.40
2022-12-22T14:41:51.482Z,47.55
2022-12-22T14:44:37.619Z,52.70
2022-12-22T14:47:22.897Z,41.55
2022-12-22T14:50:14.776Z,43.20
2022-12-22T14:52:49.753Z,54.53
2022-12-22T14:55:47.352Z,94.13
2022-12-22T14:58:21.382Z,66.38
2022-12-22T15:01:25.670Z,50.30
2022-12-22T15:04:17.348Z,53.88
2022-12-22T15:06:52.922Z,53.60
2022-12-22T15:09:55.147Z,46.97
2022-12-22T15:12:25.218Z,47.60
2022-12-22T15:14:53.408Z,44.17
2022-12-22T15:17:29.315Z,44.97
2022-12-22T15:20:00.614Z,48.97
2022-12-22T15:22:33.737Z,46.70
2022-12-22T15:25:06.420Z,45.95
2022-12-22T15:27:38.950Z,48.05
2022-12-22T15:30:12.190Z,50.63
2022-12-22T15:32:52.327Z,45.08
2022-12-22T15:35:31.065Z,50.03
2022-12-22T15:38:10.482Z,49.50
2022-12-22T15:40:43.499Z,52.95
2022-12-22T15:43:53.978Z,62.08
2022-12-22T15:46:14.190Z,52.58
2022-12-22T15:48:47.826Z,60.72
2022-12-22T15:51:25.357Z,41.53
2022-12-22T15:53:55.434Z,49.88
2022-12-22T15:56:39.047Z,47.78
2022-12-22T15:59:38.163Z,43.95
2022-12-22T16:02:17.014Z,41.65
2022-12-22T16:04:49.567Z,40.17
2022-12-22T16:07:17.414Z,37.47
2022-12-22T16:09:48.978Z,39.60
2022-12-22T16:12:31.191Z,33.10
2022-12-22T16:15:20.746Z,61.95
2022-12-22T16:17:53.443Z,70.75
2022-12-22T16:20:23.790Z,55.00
2022-12-22T16:22:54.302Z,41.28
2022-12-22T16:25:31.155Z,44.20
2022-12-22T16:28:02.214Z,38.95
2022-12-22T16:30:38.262Z,45.83
2022-12-22T16:33:16.334Z,47.05
2022-12-22T16:35:47.131Z,49.05
2022-12-22T16:41:03.573Z,41.97
2022-12-22T16:43:51.568Z,40.15
2022-12-22T16:46:27.610Z,44.42
2022-12-22T16:49:01.426Z,42.58
2022-12-22T16:51:40.460Z,42.67
2022-12-22T16:54:14.786Z,36.70
2022-12-22T16:56:43.618Z,38.30
2022-12-22T16:59:15.153Z,46.17
2022-12-22T17:02:17.552Z,54.03
2022-12-22T17:04:49.631Z,48.78
2022-12-22T17:07:18.075Z,37.03
2022-12-22T17:10:00.257Z,44.38
2022-12-22T17:12:39.960Z,42.28
2022-12-22T17:15:21.528Z,43.88
2022-12-22T17:17:52.415Z,38.17
2022-12-22T17:20:31.817Z,36.75
2022-12-22T17:23:10.567Z,40.67
2022-12-22T17:25:46.666Z,41.65
2022-12-22T17:28:22.162Z,40.15
2022-12-22T17:30:56.102Z,35.22
2022-12-22T17:33:35.012Z,32.80
2022-12-22T17:36:03.281Z,37.55
2022-12-22T17:38:36.785Z,35.35
2022-12-22T17:41:14.852Z,33.00
2022-12-22T17:43:45.523Z,42.70
2022-12-22T17:46:26.486Z,37.78
2022-12-22T17:48:54.396Z,36.67
2022-12-22T17:51:25.852Z,34.83
2022-12-22T17:53:59.695Z,40.22
2022-12-22T17:56:31.844Z,34.38
2022-12-22T17:59:00.511Z,34.20
2022-12-22T18:01:34.280Z,33.28
2022-12-22T18:04:02.570Z,41.10
2022-12-22T18:06:35.833Z,34.35
2022-12-22T18:09:09.851Z,42.35
2022-12-22T18:11:42.192Z,37.92
2022-12-22T18:14:15.658Z,33.20
2022-12-22T18:16:46.595Z,53.42
2022-12-22T18:19:14.767Z,42.40
2022-12-22T18:24:32.258Z,29.35
2022-12-22T18:27:13.107Z,30.40
2022-12-22T18:29:53.099Z,29.77
2022-12-22T18:32:27.844Z,29.15
2022-12-22T18:34:56.881Z,28.50
2022-12-22T18:37:38.737Z,30.80
2022-12-22T18:40:31.678Z,33.55
2022-12-22T18:43:17.032Z,30.60
2022-12-22T18:45:47.278Z,32.25
2022-12-22T18:48:18.379Z,29.45
2022-12-22T18:50:47.280Z,27.35
2022-12-22T18:53:30.085Z,33.08
2022-12-22T18:56:07.993Z,28.02
2022-12-22T18:58:41.137Z,33.28
2022-12-22T19:01:27.372Z,30.35
2022-12-22T19:04:06.863Z,29.48
2022-12-22T19:06:35.314Z,29.85
2022-12-22T19:09:09.624Z,24.38
2022-12-22T19:12:00.055Z,26.80
2022-12-22T19:14:31.513Z,26.15
2022-12-22T19:17:14.199Z,25.17
2022-12-22T19:19:51.771Z,24.60
2022-12-22T19:22:21.383Z,27.92
2022-12-22T19:24:57.831Z,28.25
2022-12-22T19:27:34.597Z,26.17
2022-12-22T19:30:05.841Z,28.38
2022-12-22T19:32:42.576Z,25.55
2022-12-22T19:35:21.390Z,20.95
2022-12-22T19:38:05.212Z,19.88
2022-12-22T19:40:36.968Z,21.25
2022-12-22T19:43:08.328Z,26.73
2022-12-22T19:45:41.501Z,38.22
2022-12-22T19:48:19.230Z,35.03
2022-12-22T19:51:01.136Z,32.17
2022-12-22T19:53:29.684Z,33.90
2022-12-22T19:56:00.837Z,33.63
2022-12-22T19:58:36.578Z,26.23
2022-12-22T20:01:12.041Z,29.83
2022-12-22T20:03:42.787Z,25.45
2022-12-22T20:06:18.028Z,23.10
2022-12-22T20:08:50.540Z,21.27
2022-12-22T20:11:21.839Z,25.10
2022-12-22T20:13:57.567Z,26.00
2022-12-22T20:16:28.694Z,21.88
2022-12-22T20:19:00.262Z,21.30
2022-12-22T20:21:31.054Z,22.27
2022-12-22T20:24:09.788Z,23.95
2022-12-22T20:26:51.798Z,20.52
2022-12-22T20:29:27.087Z,21.27
2022-12-22T20:32:11.463Z,20.92
2022-12-22T20:34:44.625Z,19.88
2022-12-22T20:37:22.456Z,17.10
2022-12-22T20:39:55.726Z,17.13
2022-12-22T20:42:42.651Z,19.73
2022-12-22T20:45:12.984Z,15.48
2022-12-22T20:47:51.408Z,15.73
2022-12-22T20:50:30.193Z,14.10
2022-12-22T20:53:03.912Z,14.20
2022-12-22T20:55:45.907Z,14.73
2022-12-22T20:58:29.407Z,11.93
2022-12-22T21:01:02.403Z,18.27
2022-12-22T21:03:46.154Z,13.32
2022-12-22T21:06:31.294Z,12.82
2022-12-22T21:09:03.717Z,14.95
2022-12-22T21:11:36.754Z,14.25
2022-12-22T21:14:12.967Z,14.48
2022-12-22T21:16:44.122Z,18.40
2022-12-22T21:19:19.618Z,13.25
2022-12-22T21:21:49.833Z,15.32
2022-12-22T21:24:21.897Z,22.40
2022-12-22T21:26:58.102Z,18.15
2022-12-22T21:29:27.777Z,13.95
2022-12-22T21:31:56.054Z,13.57
2022-12-22T21:34:32.274Z,13.38
2022-12-22T21:37:02.736Z,14.27
2022-12-22T21:39:39.674Z,16.75
2022-12-22T21:42:10.668Z,15.23
2022-12-22T21:44:41.797Z,13.52
2022-12-22T21:47:24.015Z,18.95
2022-12-22T21:49:52.250Z,10.35
2022-12-22T21:52:25.980Z,15.93
2022-12-22T21:54:57.341Z,10.95
2022-12-22T22:00:05.159Z,18.13
2022-12-22T22:02:33.389Z,11.85
2022-12-22T22:05:03.673Z,12.48
2022-12-22T22:07:36.857Z,13.75
2022-12-22T22:10:17.314Z,11.38
2022-12-22T22:12:46.984Z,12.85
2022-12-22T22:15:17.556Z,13.93
2022-12-22T22:20:41.013Z,10.10
2022-12-22T22:23:16.535Z,12.80
2022-12-22T22:26:03.808Z,13.25
2022-12-22T22:29:00.547Z,14.07
2022-12-22T22:31:40.275Z,14.55
2022-12-22T22:34:13.707Z,11.73
2022-12-22T22:36:46.787Z,11.32
2022-12-22T22:39:28.224Z,12.95
2022-12-22T22:42:00.978Z,12.15
2022-12-22T22:44:35.734Z,14.80
2022-12-22T22:47:09.451Z,13.15
2022-12-22T22:49:42.530Z,10.80
2022-12-22T22:52:14.083Z,12.70
2022-12-22T22:54:50.480Z,10.10
2022-12-22T22:57:30.513Z,9.50
2022-12-22T22:59:58.225Z,9.80
2022-12-22T23:02:32.188Z,11.80
2022-12-22T23:05:02.222Z,11.40
2022-12-22T23:07:46.763Z,11.30
2022-12-22T23:10:16.954Z,11.43
2022-12-22T23:12:47.861Z,11.15
2022-12-22T23:15:28.641Z,11.38
2022-12-22T23:18:23.229Z,9.87
2022-12-22T23:21:31.499Z,12.48
2022-12-22T23:24:04.383Z,9.43
2022-12-22T23:26:49.983Z,11.02
2022-12-22T23:29:27.558Z,9.90
2022-12-22T23:32:02.872Z,12.48
2022-12-22T23:34:57.033Z,11.18
2022-12-22T23:37:41.387Z,11.95
2022-12-22T23:40:50.639Z,11.70
2022-12-22T23:43:11.833Z,12.55
2022-12-22T23:45:54.540Z,12.50
2022-12-22T23:48:33.533Z,11.00
2022-12-22T23:53:42.667Z,12.25
2022-12-22T23:56:17.754Z,12.88
2022-12-22T23:58:52.529Z,12.35
